Terminal Aerodrome Forecast
Issued by NWS Wakefield, VA

Home | Current Version | Previous Version | Text Only | Print | Product List | Glossary On
Versions: 1 2 3 4 5 6 7 8 9 10 11 12 13 14 15 16
000
FTUS41 KAKQ 011100
TAFORF
TAF
KORF 011127Z 0112/0212 03006KT P6SM OVC040
     FM011400 03005KT 4SM -RA OVC030
     FM011600 05007KT 3SM -RA BR OVC015
     FM012000 35007KT 2SM -RA BR OVC004
     FM020300 24008KT 4SM BR OVC004=

USA.gov is the U.S. government's official web portal to all federal, state and local government web resources and services.